Time;durP1;ratioP1;P1;durP2;ratioP2;P2;SDS_P1;SDS_P2;PMS_P1;PMS_P2;Temp;Humidity;BMP_temperature;BMP_pressure;BME280_temperature;BME280_humidity;BME280_pressure;Samples;Min_cycle;Max_cycle;Signal;HPM_P1;HPM_P2
2023/10/29 00:00:34;;;;;;;8.38;3.22;;;;;;;;;;5010543;28;20025;-78
2023/10/29 00:03:00;;;;;;;6.65;3.25;;;;;;;;;;5008973;28;20767;-78
2023/10/29 00:05:25;;;;;;;8.93;3.30;;;;;;;;;;5011619;28;20493;-78
2023/10/29 00:07:54;;;;;;;8.30;3.40;;;;;;;;;;5011341;28;20431;-77
2023/10/29 00:10:19;;;;;;;6.57;3.08;;;;;;;;;;5010969;28;20039;-77
2023/10/29 00:12:45;;;;;;;8.15;3.28;;;;;;;;;;5009060;28;20056;-76
2023/10/29 00:15:11;;;;;;;6.13;2.72;;;;;;;;;;5025244;28;20061;-76
2023/10/29 00:17:36;;;;;;;7.03;3.13;;;;;;;;;;5017528;28;20068;-75
2023/10/29 00:20:06;;;;;;;6.20;2.60;;;;;;;;;;5011245;28;20027;-73
2023/10/29 00:22:32;;;;;;;5.75;3.45;;;;;;;;;;5028130;28;20029;-72
2023/10/29 00:24:57;;;;;;;7.40;3.22;;;;;;;;;;5011451;28;20021;-73
2023/10/29 00:27:25;;;;;;;8.35;3.10;;;;;;;;;;5029551;28;20053;-75
2023/10/29 00:29:51;;;;;;;6.15;3.17;;;;;;;;;;5028032;28;20124;-74
2023/10/29 00:32:18;;;;;;;6.78;2.72;;;;;;;;;;5029340;28;20029;-75
2023/10/29 00:34:46;;;;;;;6.07;2.83;;;;;;;;;;5011374;28;20595;-73
2023/10/29 00:37:13;;;;;;;9.43;2.90;;;;;;;;;;5011616;28;20072;-73
2023/10/29 00:39:40;;;;;;;6.97;3.58;;;;;;;;;;5032294;28;20137;-74
2023/10/29 00:42:06;;;;;;;7.57;2.95;;;;;;;;;;5033472;28;20037;-74
2023/10/29 00:44:32;;;;;;;2.92;2.35;;;;;;;;;;5015718;28;20083;-74
2023/10/29 00:46:58;;;;;;;8.52;3.08;;;;;;;;;;5031828;28;20037;-75
2023/10/29 00:49:24;;;;;;;5.03;3.08;;;;;;;;;;5033745;28;20049;-73
2023/10/29 00:51:50;;;;;;;7.38;3.05;;;;;;;;;;5033643;28;20107;-73
2023/10/29 00:54:16;;;;;;;6.80;3.15;;;;;;;;;;5033275;28;20596;-73
2023/10/29 00:56:42;;;;;;;5.63;2.85;;;;;;;;;;5032407;28;20025;-74
2023/10/29 00:59:07;;;;;;;5.90;2.65;;;;;;;;;;5029346;28;20030;-73
2023/10/29 01:01:33;;;;;;;5.32;3.10;;;;;;;;;;5013948;28;20101;-75
2023/10/29 01:03:59;;;;;;;4.00;2.45;;;;;;;;;;5013305;28;20026;-74
2023/10/29 01:06:26;;;;;;;5.30;3.00;;;;;;;;;;5011636;28;20411;-74
2023/10/29 01:08:53;;;;;;;6.72;2.78;;;;;;;;;;5015218;28;20107;-74
2023/10/29 01:11:18;;;;;;;8.05;2.30;;;;;;;;;;5032379;28;20033;-74
2023/10/29 01:13:44;;;;;;;5.07;2.85;;;;;;;;;;5032474;28;20137;-74
2023/10/29 01:16:10;;;;;;;5.05;2.67;;;;;;;;;;5014481;28;20029;-71
2023/10/29 01:18:37;;;;;;;5.60;2.60;;;;;;;;;;5030901;28;20083;-74
2023/10/29 01:21:02;;;;;;;5.82;2.20;;;;;;;;;;5011024;28;20277;-76
2023/10/29 01:23:30;;;;;;;5.88;3.13;;;;;;;;;;4994853;28;20095;-74
2023/10/29 01:25:59;;;;;;;4.40;2.25;;;;;;;;;;4994745;28;20398;-73
2023/10/29 01:28:25;;;;;;;3.38;2.10;;;;;;;;;;4994718;28;20022;-73
2023/10/29 01:30:50;;;;;;;5.35;2.35;;;;;;;;;;4994612;28;20482;-74
2023/10/29 01:33:16;;;;;;;5.93;2.08;;;;;;;;;;4994594;28;20076;-72
2023/10/29 01:35:41;;;;;;;6.78;2.50;;;;;;;;;;5012326;28;20621;-74
2023/10/29 01:38:07;;;;;;;3.58;2.05;;;;;;;;;;5012141;28;20494;-74
2023/10/29 01:40:33;;;;;;;5.47;2.80;;;;;;;;;;4994177;28;20025;-73
2023/10/29 01:42:58;;;;;;;6.55;2.70;;;;;;;;;;5010584;28;20032;-73
2023/10/29 01:45:24;;;;;;;5.53;2.40;;;;;;;;;;4997694;28;20066;-73
2023/10/29 01:47:49;;;;;;;5.32;2.75;;;;;;;;;;5026846;28;20045;-74
2023/10/29 01:50:15;;;;;;;4.45;2.42;;;;;;;;;;5009594;28;20026;-74
2023/10/29 01:52:41;;;;;;;5.20;2.70;;;;;;;;;;5010542;28;20037;-73
2023/10/29 01:55:07;;;;;;;6.07;2.78;;;;;;;;;;5011086;28;20034;-73
2023/10/29 01:57:34;;;;;;;6.50;3.13;;;;;;;;;;5011487;28;20033;-75
2023/10/29 02:00:00;;;;;;;6.43;2.58;;;;;;;;;;5009837;28;20033;-74
2023/10/29 02:02:25;;;;;;;5.15;2.55;;;;;;;;;;5009774;28;20034;-74
2023/10/29 02:04:51;;;;;;;5.38;2.80;;;;;;;;;;5011810;28;20171;-74
2023/10/29 02:07:16;;;;;;;5.90;2.88;;;;;;;;;;4993937;28;20029;-74
2023/10/29 02:09:42;;;;;;;6.13;2.50;;;;;;;;;;4998029;28;20087;-74
2023/10/29 02:12:07;;;;;;;6.57;2.25;;;;;;;;;;5013316;28;20082;-74
2023/10/29 02:14:36;;;;;;;6.25;2.47;;;;;;;;;;5029613;28;20565;-75
2023/10/29 02:17:02;;;;;;;5.45;2.45;;;;;;;;;;5011262;28;20062;-75
2023/10/29 02:19:27;;;;;;;7.55;2.60;;;;;;;;;;4993933;28;20049;-74
2023/10/29 02:21:54;;;;;;;3.97;2.50;;;;;;;;;;5005465;28;20017;-74
2023/10/29 02:24:19;;;;;;;6.88;2.85;;;;;;;;;;5013480;28;20040;-74
2023/10/29 02:26:45;;;;;;;3.63;2.03;;;;;;;;;;5028340;28;20029;-73
2023/10/29 02:29:10;;;;;;;9.18;3.00;;;;;;;;;;4993686;28;20627;-73
2023/10/29 02:31:36;;;;;;;4.90;2.47;;;;;;;;;;5009868;28;20500;-74
2023/10/29 02:34:01;;;;;;;9.25;3.05;;;;;;;;;;4994040;28;20497;-74
2023/10/29 02:36:27;;;;;;;6.90;2.50;;;;;;;;;;4993331;28;20038;-74
2023/10/29 02:38:52;;;;;;;6.80;2.45;;;;;;;;;;4993607;28;20030;-74
2023/10/29 02:41:18;;;;;;;5.25;2.60;;;;;;;;;;5011212;28;20344;-74
2023/10/29 02:43:43;;;;;;;4.28;2.40;;;;;;;;;;4993406;28;20117;-74
2023/10/29 02:46:10;;;;;;;3.70;2.40;;;;;;;;;;5024675;28;20025;-73
2023/10/29 02:48:36;;;;;;;4.82;2.85;;;;;;;;;;5013131;28;20037;-73
2023/10/29 02:51:02;;;;;;;4.00;2.33;;;;;;;;;;5025715;28;20024;-73
2023/10/29 02:53:30;;;;;;;3.58;2.22;;;;;;;;;;4992682;28;20168;-74
2023/10/29 02:56:00;;;;;;;3.72;2.13;;;;;;;;;;4993788;28;20040;-74
2023/10/29 02:58:25;;;;;;;6.28;2.83;;;;;;;;;;4994263;28;20121;-73
2023/10/29 03:00:51;;;;;;;7.10;2.78;;;;;;;;;;5011544;28;20025;-73
2023/10/29 03:03:16;;;;;;;5.72;2.10;;;;;;;;;;5013569;28;20376;-74
2023/10/29 03:05:42;;;;;;;5.43;2.70;;;;;;;;;;5031907;28;20102;-74
2023/10/29 03:08:07;;;;;;;6.65;2.28;;;;;;;;;;5031304;28;20111;-74
2023/10/29 03:10:33;;;;;;;6.95;2.78;;;;;;;;;;5011283;28;20090;-74
2023/10/29 03:12:58;;;;;;;7.53;2.65;;;;;;;;;;5029924;28;20064;-74
2023/10/29 03:15:24;;;;;;;4.57;2.05;;;;;;;;;;5021297;28;20447;-73
2023/10/29 03:17:50;;;;;;;4.80;1.90;;;;;;;;;;4992527;28;20107;-73
2023/10/29 03:20:16;;;;;;;6.47;2.20;;;;;;;;;;5006220;28;20132;-74
2023/10/29 03:22:42;;;;;;;4.30;1.77;;;;;;;;;;4993230;28;20450;-74
2023/10/29 03:25:08;;;;;;;5.07;2.30;;;;;;;;;;4992429;28;20117;-74
2023/10/29 03:27:36;;;;;;;3.80;1.92;;;;;;;;;;4992655;28;20108;-74
2023/10/29 03:30:02;;;;;;;4.43;1.90;;;;;;;;;;4992928;28;20032;-74
2023/10/29 03:32:27;;;;;;;8.48;2.15;;;;;;;;;;5023254;28;20033;-74
2023/10/29 03:34:53;;;;;;;4.40;2.25;;;;;;;;;;5012173;28;20058;-74
2023/10/29 03:37:19;;;;;;;3.13;2.15;;;;;;;;;;5006833;28;20041;-74
2023/10/29 03:39:44;;;;;;;3.95;1.92;;;;;;;;;;5010256;28;20029;-74
2023/10/29 03:42:10;;;;;;;3.03;1.63;;;;;;;;;;4992379;28;20383;-74
2023/10/29 03:44:36;;;;;;;3.75;1.90;;;;;;;;;;5021146;28;20030;-74
2023/10/29 03:47:01;;;;;;;2.90;1.92;;;;;;;;;;5012160;28;20033;-74
2023/10/29 03:49:27;;;;;;;4.70;2.05;;;;;;;;;;5012105;28;20036;-73
2023/10/29 03:51:53;;;;;;;5.35;2.22;;;;;;;;;;5029989;28;20030;-74
2023/10/29 03:54:18;;;;;;;5.25;1.67;;;;;;;;;;5012704;28;20086;-74
2023/10/29 03:56:44;;;;;;;7.20;1.88;;;;;;;;;;5031631;28;20362;-73
2023/10/29 03:59:10;;;;;;;5.40;1.70;;;;;;;;;;5029650;28;20036;-73
2023/10/29 04:01:36;;;;;;;3.30;1.77;;;;;;;;;;5028821;28;20036;-73
2023/10/29 04:04:03;;;;;;;4.13;1.60;;;;;;;;;;5012429;28;20037;-74
2023/10/29 04:06:29;;;;;;;3.22;1.55;;;;;;;;;;5012030;28;20466;-74
2023/10/29 04:08:54;;;;;;;2.70;1.40;;;;;;;;;;5011872;28;20040;-73
2023/10/29 04:11:20;;;;;;;2.80;1.75;;;;;;;;;;5029515;28;20025;-73
2023/10/29 04:13:46;;;;;;;3.83;1.40;;;;;;;;;;5031252;28;20036;-74
2023/10/29 04:16:12;;;;;;;4.18;2.08;;;;;;;;;;5033324;28;20105;-73
2023/10/29 04:18:37;;;;;;;3.45;1.67;;;;;;;;;;5031895;28;20513;-74
2023/10/29 04:21:07;;;;;;;2.10;1.55;;;;;;;;;;5015051;28;20477;-72
2023/10/29 04:23:33;;;;;;;3.85;1.70;;;;;;;;;;5015038;28;20063;-74
2023/10/29 04:25:58;;;;;;;4.05;1.55;;;;;;;;;;5015206;28;20071;-73
2023/10/29 04:28:24;;;;;;;3.22;1.80;;;;;;;;;;5015076;28;20057;-74
2023/10/29 04:30:50;;;;;;;3.78;1.67;;;;;;;;;;5015140;28;20482;-74
2023/10/29 04:33:16;;;;;;;4.10;1.42;;;;;;;;;;5032399;28;20032;-74
2023/10/29 04:35:42;;;;;;;2.47;1.30;;;;;;;;;;5033001;28;20132;-74
2023/10/29 04:38:07;;;;;;;2.58;2.05;;;;;;;;;;5032792;28;20734;-74
2023/10/29 04:40:33;;;;;;;2.47;1.48;;;;;;;;;;5030644;28;20034;-73
2023/10/29 04:42:59;;;;;;;3.97;2.22;;;;;;;;;;5032982;28;20091;-74
2023/10/29 04:45:24;;;;;;;4.07;1.90;;;;;;;;;;5027749;28;20125;-77
2023/10/29 04:47:50;;;;;;;4.97;1.90;;;;;;;;;;5028069;28;20440;-73
2023/10/29 04:50:15;;;;;;;3.22;1.52;;;;;;;;;;5012635;28;20108;-74
2023/10/29 04:52:41;;;;;;;6.28;2.05;;;;;;;;;;5011129;28;20033;-74
2023/10/29 04:55:08;;;;;;;4.75;1.83;;;;;;;;;;5012816;28;20135;-74
2023/10/29 04:57:35;;;;;;;4.93;1.85;;;;;;;;;;5010792;28;20037;-73
2023/10/29 05:00:01;;;;;;;5.57;1.50;;;;;;;;;;5012827;28;20026;-74
2023/10/29 05:02:26;;;;;;;2.60;1.70;;;;;;;;;;5027676;28;20018;-73
2023/10/29 05:04:52;;;;;;;5.53;1.67;;;;;;;;;;5011658;28;20018;-74
2023/10/29 05:07:18;;;;;;;3.15;1.55;;;;;;;;;;5012965;28;20099;-74
2023/10/29 05:09:44;;;;;;;5.53;1.92;;;;;;;;;;5012856;28;20076;-74
2023/10/29 05:12:09;;;;;;;5.75;1.48;;;;;;;;;;5013046;28;20033;-74
2023/10/29 05:14:35;;;;;;;3.10;1.77;;;;;;;;;;5027437;28;20025;-73
2023/10/29 05:17:01;;;;;;;4.78;1.55;;;;;;;;;;5013390;28;20029;-73
2023/10/29 05:19:27;;;;;;;4.53;1.70;;;;;;;;;;5031296;28;20116;-74
2023/10/29 05:21:53;;;;;;;7.43;2.00;;;;;;;;;;5014373;28;20448;-75
2023/10/29 05:24:19;;;;;;;2.72;1.90;;;;;;;;;;5030587;28;20406;-74
2023/10/29 05:26:44;;;;;;;3.55;1.70;;;;;;;;;;5013790;28;20021;-75
2023/10/29 05:29:11;;;;;;;3.30;1.23;;;;;;;;;;5014823;28;20017;-74
2023/10/29 05:31:36;;;;;;;2.90;1.80;;;;;;;;;;5030587;28;20021;-72
2023/10/29 05:34:02;;;;;;;5.28;1.90;;;;;;;;;;5032007;28;20103;-74
2023/10/29 05:36:28;;;;;;;3.78;1.60;;;;;;;;;;5014250;28;20095;-73
2023/10/29 05:38:53;;;;;;;3.90;2.15;;;;;;;;;;5014127;28;20029;-74
2023/10/29 05:41:20;;;;;;;5.60;1.83;;;;;;;;;;5013937;28;20049;-75
2023/10/29 05:43:46;;;;;;;2.65;1.88;;;;;;;;;;5030765;28;20025;-74
2023/10/29 05:46:12;;;;;;;6.25;2.17;;;;;;;;;;5014330;28;20051;-74
2023/10/29 05:48:39;;;;;;;5.47;2.17;;;;;;;;;;5014342;28;20445;-73
2023/10/29 05:51:05;;;;;;;4.78;1.90;;;;;;;;;;5014120;28;20025;-75
2023/10/29 05:53:30;;;;;;;5.53;1.75;;;;;;;;;;5031630;28;20075;-72
2023/10/29 05:55:56;;;;;;;4.47;1.80;;;;;;;;;;5014498;28;20493;-74
2023/10/29 05:58:24;;;;;;;3.33;1.67;;;;;;;;;;5030670;28;20374;-74
2023/10/29 06:00:50;;;;;;;4.32;2.83;;;;;;;;;;5031858;28;20374;-73
2023/10/29 06:03:16;;;;;;;3.78;2.40;;;;;;;;;;5013020;28;20123;-71
2023/10/29 06:05:42;;;;;;;2.90;1.50;;;;;;;;;;5013775;28;20088;-73
2023/10/29 06:08:08;;;;;;;4.20;2.13;;;;;;;;;;5030139;28;20026;-73
2023/10/29 06:10:35;;;;;;;5.70;1.90;;;;;;;;;;5031053;28;20470;-73
2023/10/29 06:13:00;;;;;;;3.60;1.90;;;;;;;;;;5013195;28;20043;-74
2023/10/29 06:15:26;;;;;;;3.05;1.88;;;;;;;;;;5012917;28;20480;-73
2023/10/29 06:17:53;;;;;;;5.03;1.92;;;;;;;;;;5013029;28;20050;-73
2023/10/29 06:20:21;;;;;;;8.18;2.38;;;;;;;;;;5030274;28;20458;-74
2023/10/29 06:22:49;;;;;;;5.97;1.90;;;;;;;;;;5009730;28;20032;-74
2023/10/29 06:25:18;;;;;;;2.88;1.83;;;;;;;;;;5011310;28;20356;-73
2023/10/29 06:27:44;;;;;;;7.35;1.80;;;;;;;;;;5026406;28;20033;-73
2023/10/29 06:30:11;;;;;;;4.03;1.92;;;;;;;;;;5011207;28;20494;-74
2023/10/29 06:32:37;;;;;;;3.80;2.25;;;;;;;;;;5012089;28;20091;-74
2023/10/29 06:35:03;;;;;;;4.05;2.00;;;;;;;;;;5012767;28;20021;-73
2023/10/29 06:37:29;;;;;;;10.57;2.30;;;;;;;;;;5030281;28;20061;-74
2023/10/29 06:39:55;;;;;;;5.97;2.15;;;;;;;;;;5012594;28;20057;-74
2023/10/29 06:42:21;;;;;;;4.20;1.88;;;;;;;;;;5012601;28;20049;-74
2023/10/29 06:44:47;;;;;;;3.83;1.95;;;;;;;;;;5010601;28;20045;-74
2023/10/29 06:47:14;;;;;;;7.30;2.05;;;;;;;;;;5011139;28;20034;-74
2023/10/29 06:49:42;;;;;;;3.50;1.63;;;;;;;;;;4993505;28;20040;-77
2023/10/29 06:52:08;;;;;;;4.70;1.77;;;;;;;;;;4993106;28;20032;-73
2023/10/29 06:54:34;;;;;;;4.05;1.85;;;;;;;;;;5010618;28;20097;-73
2023/10/29 06:57:01;;;;;;;4.70;1.92;;;;;;;;;;5016041;28;20079;-73
2023/10/29 06:59:28;;;;;;;4.05;1.95;;;;;;;;;;5030321;28;20091;-74
2023/10/29 07:01:57;;;;;;;3.75;1.80;;;;;;;;;;5012719;28;20374;-74
2023/10/29 07:04:22;;;;;;;5.07;2.03;;;;;;;;;;5012227;28;20017;-74
2023/10/29 07:06:49;;;;;;;3.58;1.95;;;;;;;;;;5012887;28;20032;-74
2023/10/29 07:09:15;;;;;;;5.40;2.08;;;;;;;;;;5009300;28;20022;-73
2023/10/29 07:11:45;;;;;;;3.92;1.92;;;;;;;;;;5025488;28;20366;-74
2023/10/29 07:14:12;;;;;;;4.13;1.55;;;;;;;;;;5010679;28;20025;-75
2023/10/29 07:16:43;;;;;;;4.22;2.08;;;;;;;;;;5025625;28;20091;-73
2023/10/29 07:19:10;;;;;;;5.30;3.10;;;;;;;;;;5009536;28;20133;-74
2023/10/29 07:21:38;;;;;;;2.42;1.63;;;;;;;;;;5012234;28;20377;-75
2023/10/29 07:24:05;;;;;;;2.50;1.70;;;;;;;;;;5029026;28;20033;-74
2023/10/29 07:26:33;;;;;;;3.97;1.50;;;;;;;;;;5030616;28;20037;-73
2023/10/29 07:28:59;;;;;;;3.38;1.80;;;;;;;;;;5012414;28;20389;-74
2023/10/29 07:31:25;;;;;;;4.50;2.03;;;;;;;;;;5012755;28;20037;-74
2023/10/29 07:33:52;;;;;;;3.53;1.60;;;;;;;;;;5012427;28;20025;-74
2023/10/29 07:36:20;;;;;;;5.45;1.35;;;;;;;;;;5012317;28;20037;-74
2023/10/29 07:38:46;;;;;;;5.90;1.98;;;;;;;;;;5012285;28;20517;-75
2023/10/29 07:41:18;;;;;;;3.92;1.67;;;;;;;;;;5012443;28;20065;-75
2023/10/29 07:43:43;;;;;;;3.95;1.60;;;;;;;;;;5012015;28;20514;-73
2023/10/29 07:46:09;;;;;;;2.90;1.60;;;;;;;;;;5011058;28;20033;-73
2023/10/29 07:48:34;;;;;;;6.57;2.35;;;;;;;;;;5028862;28;20071;-74
2023/10/29 07:51:00;;;;;;;5.60;1.40;;;;;;;;;;5028077;28;20050;-73
2023/10/29 07:53:26;;;;;;;4.32;1.70;;;;;;;;;;5011836;28;20709;-73
2023/10/29 07:55:52;;;;;;;2.72;1.70;;;;;;;;;;5012239;28;20029;-73
2023/10/29 07:58:18;;;;;;;4.65;1.70;;;;;;;;;;5011946;28;20041;-73
2023/10/29 08:00:44;;;;;;;4.63;1.55;;;;;;;;;;5012104;28;20033;-73
2023/10/29 08:03:10;;;;;;;4.95;1.90;;;;;;;;;;5013735;28;20087;-74
2023/10/29 08:05:35;;;;;;;4.82;1.60;;;;;;;;;;5030272;28;20029;-74
2023/10/29 08:08:01;;;;;;;5.00;1.88;;;;;;;;;;5012830;28;20470;-72
2023/10/29 08:10:27;;;;;;;2.35;1.50;;;;;;;;;;5012081;28;20042;-73
2023/10/29 08:12:52;;;;;;;2.42;1.50;;;;;;;;;;5010377;28;20558;-73
2023/10/29 08:15:18;;;;;;;2.47;1.50;;;;;;;;;;5011667;28;20156;-75
2023/10/29 08:17:44;;;;;;;4.20;1.98;;;;;;;;;;5026560;28;20050;-75
2023/10/29 08:20:11;;;;;;;2.00;1.50;;;;;;;;;;4997260;28;20037;-74
2023/10/29 08:22:37;;;;;;;2.97;1.50;;;;;;;;;;5030809;28;20678;-73
2023/10/29 08:25:03;;;;;;;3.20;1.30;;;;;;;;;;5012685;28;20079;-73
2023/10/29 08:27:30;;;;;;;2.45;0.98;;;;;;;;;;5029976;28;20040;-75
2023/10/29 08:29:56;;;;;;;2.97;1.63;;;;;;;;;;5030375;28;20440;-75
2023/10/29 08:32:21;;;;;;;4.28;1.40;;;;;;;;;;5008987;28;20034;-74
2023/10/29 08:34:47;;;;;;;5.40;2.20;;;;;;;;;;5010188;28;20304;-74
2023/10/29 08:37:12;;;;;;;4.60;1.38;;;;;;;;;;5010315;28;20034;-74
2023/10/29 08:39:38;;;;;;;5.43;1.65;;;;;;;;;;5008813;28;20034;-73
2023/10/29 08:42:04;;;;;;;3.72;2.90;;;;;;;;;;5010686;28;20478;-73
2023/10/29 08:44:29;;;;;;;1.73;1.38;;;;;;;;;;5010088;28;20450;-74
2023/10/29 08:46:55;;;;;;;4.55;1.88;;;;;;;;;;5008598;28;20036;-73
2023/10/29 08:49:21;;;;;;;5.50;1.60;;;;;;;;;;5009261;28;20056;-75
2023/10/29 08:51:53;;;;;;;2.50;1.98;;;;;;;;;;5010231;28;20054;-75
2023/10/29 08:54:26;;;;;;;2.13;1.63;;;;;;;;;;5011954;28;20049;-76
2023/10/29 08:56:57;;;;;;;4.55;1.80;;;;;;;;;;5013468;28;20033;-75
2023/10/29 08:59:37;;;;;;;2.92;1.80;;;;;;;;;;5013849;28;20029;-75
2023/10/29 09:02:07;;;;;;;2.25;1.30;;;;;;;;;;5016843;28;20025;-78
2023/10/29 09:04:37;;;;;;;4.75;1.65;;;;;;;;;;5016425;28;20029;-75
2023/10/29 09:07:04;;;;;;;5.88;1.60;;;;;;;;;;5017512;28;20057;-77
2023/10/29 09:12:30;;;;;;;4.18;1.60;;;;;;;;;;5014730;28;20034;-78
2023/10/29 09:15:05;;;;;;;3.92;1.55;;;;;;;;;;5015773;28;20482;-83
2023/10/29 09:17:57;;;;;;;2.53;1.65;;;;;;;;;;5017272;28;20053;-76
2023/10/29 09:20:36;;;;;;;3.50;1.33;;;;;;;;;;5012165;28;20034;-79
2023/10/29 09:23:05;;;;;;;2.65;1.40;;;;;;;;;;5017442;28;20052;-80
2023/10/29 09:25:31;;;;;;;4.63;2.08;;;;;;;;;;5016891;28;20026;-81
2023/10/29 09:27:58;;;;;;;3.90;1.80;;;;;;;;;;5014997;28;20052;-82
2023/10/29 09:30:24;;;;;;;5.93;2.08;;;;;;;;;;5016505;28;20026;-80
2023/10/29 09:32:52;;;;;;;5.13;3.63;;;;;;;;;;5027548;28;20037;-81
2023/10/29 09:35:19;;;;;;;5.43;1.90;;;;;;;;;;5034410;28;20030;-82
2023/10/29 09:37:51;;;;;;;7.15;1.77;;;;;;;;;;5016078;28;20473;-83
2023/10/29 09:40:18;;;;;;;5.20;1.48;;;;;;;;;;5016742;28;20043;-81
2023/10/29 09:42:53;;;;;;;4.40;1.80;;;;;;;;;;5034105;28;20032;-80
2023/10/29 09:45:24;;;;;;;1.90;1.30;;;;;;;;;;5015950;28;20120;-81
2023/10/29 09:47:50;;;;;;;3.88;1.65;;;;;;;;;;5016076;28;20053;-84
2023/10/29 09:50:22;;;;;;;3.05;1.65;;;;;;;;;;5016672;28;20033;-80
2023/10/29 09:52:58;;;;;;;;;;;;;;;;;;5016470;28;20047;-82
2023/10/29 09:55:27;;;;;;;5.60;2.03;;;;;;;;;;5014469;28;19919;-79
2023/10/29 09:58:00;;;;;;;4.00;1.90;;;;;;;;;;5032827;28;20025;-81
2023/10/29 10:00:32;;;;;;;2.88;1.98;;;;;;;;;;5016436;28;20060;-81
2023/10/29 10:03:01;;;;;;;1.63;1.17;;;;;;;;;;5016476;28;20033;-82
2023/10/29 10:05:33;;;;;;;4.90;1.75;;;;;;;;;;5016233;28;20063;-81
2023/10/29 10:08:02;;;;;;;4.22;1.77;;;;;;;;;;5015406;28;20033;-81
2023/10/29 10:10:47;;;;;;;3.08;1.80;;;;;;;;;;5026329;28;20087;-79
2023/10/29 10:13:17;;;;;;;9.20;3.20;;;;;;;;;;5011531;28;20044;-84
2023/10/29 10:15:48;;;;;;;4.15;1.77;;;;;;;;;;5011641;28;20029;-80
2023/10/29 10:18:20;;;;;;;2.65;1.50;;;;;;;;;;5011552;28;20116;-80
2023/10/29 10:20:58;;;;;;;4.93;1.90;;;;;;;;;;5011801;28;20041;-80
2023/10/29 10:23:55;;;;;;;5.93;2.00;;;;;;;;;;5012678;28;20037;-82
2023/10/29 10:26:38;;;;;;;4.35;2.05;;;;;;;;;;5013563;28;20112;-79
2023/10/29 10:29:12;;;;;;;8.60;4.20;;;;;;;;;;5013239;28;20045;-82
2023/10/29 10:31:46;;;;;;;6.82;1.95;;;;;;;;;;5015010;28;20030;-83
2023/10/29 10:34:23;;;;;;;2.97;1.45;;;;;;;;;;5016954;28;20044;-82
2023/10/29 10:36:49;;;;;;;4.95;1.55;;;;;;;;;;5015832;28;20084;-78
2023/10/29 10:39:27;;;;;;;4.05;1.98;;;;;;;;;;5030826;28;20029;-81
2023/10/29 10:41:58;;;;;;;3.45;2.15;;;;;;;;;;5015984;28;20458;-82
2023/10/29 10:44:27;;;;;;;1.67;1.10;;;;;;;;;;5023879;28;20095;-81
2023/10/29 10:47:02;;;;;;;13.73;5.47;;;;;;;;;;5013124;28;20593;-83
2023/10/29 10:49:41;;;;;;;4.60;1.60;;;;;;;;;;5030928;28;20037;-80
2023/10/29 10:52:11;;;;;;;3.72;1.80;;;;;;;;;;5016195;28;20033;-80
2023/10/29 10:54:44;;;;;;;2.85;1.45;;;;;;;;;;5018636;28;20505;-80
2023/10/29 10:57:14;;;;;;;4.45;1.95;;;;;;;;;;5033419;28;20036;-81
2023/10/29 10:59:47;;;;;;;2.88;1.52;;;;;;;;;;5032903;28;20117;-80
2023/10/29 11:02:19;;;;;;;19.33;8.43;;;;;;;;;;5014456;28;20044;-80
2023/10/29 11:04:47;;;;;;;2.13;1.30;;;;;;;;;;5013604;28;20092;-82
2023/10/29 11:07:24;;;;;;;3.30;1.90;;;;;;;;;;4997779;28;20366;-82
2023/10/29 11:09:52;;;;;;;2.40;1.40;;;;;;;;;;5013934;28;20068;-80
2023/10/29 11:12:22;;;;;;;6.35;2.28;;;;;;;;;;5031490;28;20091;-79
2023/10/29 11:15:17;;;;;;;2.92;2.15;;;;;;;;;;5031267;28;20029;-82
2023/10/29 11:17:57;;;;;;;5.10;2.40;;;;;;;;;;4993172;28;20057;-79
2023/10/29 11:20:49;;;;;;;3.10;1.67;;;;;;;;;;5003206;28;20111;-81
2023/10/29 11:23:17;;;;;;;5.85;2.63;;;;;;;;;;5026511;28;20067;-79
2023/10/29 11:25:44;;;;;;;5.13;2.33;;;;;;;;;;4997603;28;20448;-82
2023/10/29 11:28:31;;;;;;;4.88;1.77;;;;;;;;;;5014624;28;20036;-81
2023/10/29 11:31:17;;;;;;;2.70;1.88;;;;;;;;;;5032820;28;20028;-80
2023/10/29 11:33:48;;;;;;;3.92;1.52;;;;;;;;;;5014367;28;20036;-81
2023/10/29 11:36:34;;;;;;;;;;;;;;;;;;5027539;28;20061;-81
2023/10/29 11:39:15;;;;;;;3.88;1.55;;;;;;;;;;5012511;28;19917;-81
2023/10/29 11:41:46;;;;;;;2.97;1.63;;;;;;;;;;5013046;28;20107;-80
2023/10/29 11:44:22;;;;;;;5.40;1.85;;;;;;;;;;4994820;28;20034;-80
2023/10/29 11:47:04;;;;;;;4.88;1.63;;;;;;;;;;5011545;28;20109;-81
2023/10/29 11:49:49;;;;;;;2.72;1.00;;;;;;;;;;4994266;28;20029;-81
2023/10/29 11:52:15;;;;;;;5.30;1.63;;;;;;;;;;5012837;28;20038;-85
2023/10/29 11:54:43;;;;;;;3.75;1.50;;;;;;;;;;5012818;28;20467;-79
2023/10/29 11:57:09;;;;;;;4.20;1.65;;;;;;;;;;5020966;28;20421;-79
2023/10/29 11:59:55;;;;;;;6.28;1.58;;;;;;;;;;5013899;28;20123;-78
2023/10/29 12:02:30;;;;;;;4.25;1.63;;;;;;;;;;5030838;28;20103;-86
2023/10/29 12:04:57;;;;;;;4.97;1.23;;;;;;;;;;5014922;28;20398;-79
2023/10/29 12:07:34;;;;;;;5.60;1.38;;;;;;;;;;4999149;28;20445;-80
2023/10/29 12:10:07;;;;;;;2.80;1.55;;;;;;;;;;5028091;28;20029;-77
2023/10/29 12:12:35;;;;;;;2.35;1.55;;;;;;;;;;5018060;28;20068;-82
2023/10/29 12:15:10;;;;;;;2.42;1.30;;;;;;;;;;5036757;28;20512;-84
2023/10/29 12:17:36;;;;;;;2.67;1.17;;;;;;;;;;5020843;28;20088;-82
2023/10/29 12:20:03;;;;;;;1.95;1.20;;;;;;;;;;5024290;28;20098;-84
2023/10/29 12:22:31;;;;;;;3.67;1.30;;;;;;;;;;5026093;28;20029;-81
2023/10/29 12:25:11;;;;;;;3.55;1.27;;;;;;;;;;5022792;28;20037;-84
2023/10/29 12:27:43;;;;;;;2.47;1.17;;;;;;;;;;5014905;28;20026;-83
2023/10/29 12:30:29;;;;;;;5.22;1.63;;;;;;;;;;5015599;28;20037;-82
2023/10/29 12:33:26;;;;;;;4.45;1.13;;;;;;;;;;5029664;28;20037;-81
2023/10/29 12:36:04;;;;;;;1.73;1.27;;;;;;;;;;5014004;28;20091;-84
2023/10/29 12:38:39;;;;;;;5.03;2.63;;;;;;;;;;4999410;28;20068;-83
2023/10/29 12:41:14;;;;;;;2.13;0.98;;;;;;;;;;4998004;28;20458;-82
2023/10/29 12:44:00;;;;;;;3.67;1.60;;;;;;;;;;5014521;28;20493;-82
2023/10/29 12:46:27;;;;;;;2.50;1.17;;;;;;;;;;5031640;28;20033;-80
2023/10/29 12:49:12;;;;;;;2.20;1.17;;;;;;;;;;5016966;28;20184;-82
2023/10/29 12:51:43;;;;;;;3.25;1.70;;;;;;;;;;5032654;28;20037;-82
2023/10/29 12:54:16;;;;;;;3.78;1.85;;;;;;;;;;5034150;28;20029;-81
2023/10/29 12:57:01;;;;;;;2.78;1.30;;;;;;;;;;5015827;28;20052;-83
2023/10/29 12:59:32;;;;;;;2.03;1.30;;;;;;;;;;5033866;28;20359;-83
2023/10/29 13:02:05;;;;;;;4.53;1.50;;;;;;;;;;5016567;28;20029;-79
2023/10/29 13:04:35;;;;;;;3.60;1.42;;;;;;;;;;5017056;28;20033;-83
2023/10/29 13:07:11;;;;;;;3.92;1.30;;;;;;;;;;5016647;28;20025;-80
2023/10/29 13:09:42;;;;;;;1.23;0.90;;;;;;;;;;5015434;28;20546;-81
2023/10/29 13:12:11;;;;;;;1.55;1.13;;;;;;;;;;5033080;28;20074;-82
2023/10/29 13:14:41;;;;;;;2.03;1.33;;;;;;;;;;5016479;28;20037;-81
2023/10/29 13:17:15;;;;;;;3.15;1.20;;;;;;;;;;5033659;28;20033;-81
2023/10/29 13:19:47;;;;;;;2.53;1.20;;;;;;;;;;5015767;28;20536;-81
2023/10/29 13:22:13;;;;;;;4.20;1.52;;;;;;;;;;5015035;28;20025;-82
2023/10/29 13:24:48;;;;;;;2.10;1.17;;;;;;;;;;5015828;28;20029;-82
2023/10/29 13:27:21;;;;;;;3.35;1.63;;;;;;;;;;5016060;28;20116;-82
2023/10/29 13:29:48;;;;;;;3.17;1.80;;;;;;;;;;5015946;28;20041;-81
2023/10/29 13:32:15;;;;;;;3.30;2.08;;;;;;;;;;5015100;28;20041;-84
2023/10/29 13:34:45;;;;;;;2.22;1.42;;;;;;;;;;5032773;28;20052;-82
2023/10/29 13:37:14;;;;;;;4.00;1.42;;;;;;;;;;5033664;28;20078;-82
2023/10/29 13:40:21;;;;;;;;;;;;;;;;;;;;;
2023/10/29 13:42:56;;;;;;;2.17;1.60;;;;;;;;;;5016894;28;20047;-79
2023/10/29 13:45:28;;;;;;;2.13;1.60;;;;;;;;;;5013912;28;20073;-81
2023/10/29 13:48:07;;;;;;;3.90;1.83;;;;;;;;;;5005873;28;20466;-82
2023/10/29 13:50:39;;;;;;;6.20;1.70;;;;;;;;;;5018426;28;20064;-82
2023/10/29 13:53:07;;;;;;;3.22;1.27;;;;;;;;;;5021372;28;20036;-82
2023/10/29 13:55:36;;;;;;;3.65;1.35;;;;;;;;;;5013880;28;20113;-84
2023/10/29 13:58:02;;;;;;;3.25;1.60;;;;;;;;;;5031295;28;20038;-82
2023/10/29 14:00:29;;;;;;;5.03;1.58;;;;;;;;;;5016608;28;20033;-79
2023/10/29 14:02:55;;;;;;;10.48;2.08;;;;;;;;;;5015876;28;20030;-81
2023/10/29 14:05:24;;;;;;;2.58;1.73;;;;;;;;;;5015866;28;20081;-80
2023/10/29 14:08:01;;;;;;;3.22;1.73;;;;;;;;;;5012645;28;20026;-78
2023/10/29 14:10:36;;;;;;;2.58;1.65;;;;;;;;;;5012939;28;20037;-79
2023/10/29 14:13:05;;;;;;;5.05;1.70;;;;;;;;;;5013850;28;20103;-79
2023/10/29 14:15:38;;;;;;;3.35;1.77;;;;;;;;;;5012551;28;20025;-81
2023/10/29 14:18:11;;;;;;;4.63;2.20;;;;;;;;;;4996897;28;20058;-81
2023/10/29 14:20:38;;;;;;;6.82;1.63;;;;;;;;;;4995859;28;20414;-80
2023/10/29 14:23:06;;;;;;;3.35;1.60;;;;;;;;;;5013386;28;20026;-79
2023/10/29 14:25:38;;;;;;;3.95;1.60;;;;;;;;;;5011503;28;20026;-79
2023/10/29 14:28:28;;;;;;;5.13;1.83;;;;;;;;;;4995192;28;20034;-78
2023/10/29 14:31:11;;;;;;;3.85;2.00;;;;;;;;;;5009138;28;20038;-81
2023/10/29 14:33:43;;;;;;;4.57;3.60;;;;;;;;;;5015053;28;20133;-79
2023/10/29 14:36:15;;;;;;;18.52;2.80;;;;;;;;;;5015052;28;20064;-81
2023/10/29 14:38:47;;;;;;;6.88;2.67;;;;;;;;;;5015016;28;20448;-80
2023/10/29 14:41:17;;;;;;;5.13;2.00;;;;;;;;;;5013219;28;20049;-79
2023/10/29 14:43:47;;;;;;;5.32;1.90;;;;;;;;;;5014097;28;20391;-81
2023/10/29 14:46:16;;;;;;;4.50;2.08;;;;;;;;;;5014993;28;20096;-82
2023/10/29 14:48:49;;;;;;;6.97;1.73;;;;;;;;;;5014999;28;20083;-80
2023/10/29 14:51:15;;;;;;;6.35;1.85;;;;;;;;;;5033864;28;20033;-79
2023/10/29 14:53:44;;;;;;;3.58;1.60;;;;;;;;;;5015967;28;20107;-79
2023/10/29 14:56:21;;;;;;;5.43;1.48;;;;;;;;;;5014718;28;20049;-80
2023/10/29 14:58:47;;;;;;;8.40;2.30;;;;;;;;;;5031933;28;20032;-77